sensor_id;sensor_type;location;lat;lon;timestamp;P1;durP1;ratioP1;P2;durP2;ratioP2
76417;SDS011;65250;47.602;19.002;2023-02-04T00:02:06;3.53;;;0.82;;
76417;SDS011;65250;47.602;19.002;2023-02-04T00:04:33;7.15;;;1.20;;
76417;SDS011;65250;47.602;19.002;2023-02-04T00:07:00;6.77;;;1.07;;
76417;SDS011;65250;47.602;19.002;2023-02-04T00:09:27;4.75;;;1.00;;
76417;SDS011;65250;47.602;19.002;2023-02-04T00:11:53;5.82;;;1.10;;
76417;SDS011;65250;47.602;19.002;2023-02-04T00:14:20;5.47;;;1.00;;
76417;SDS011;65250;47.602;19.002;2023-02-04T00:16:47;6.57;;;1.02;;
76417;SDS011;65250;47.602;19.002;2023-02-04T00:19:14;5.50;;;1.00;;
76417;SDS011;65250;47.602;19.002;2023-02-04T00:21:42;5.15;;;0.98;;
76417;SDS011;65250;47.602;19.002;2023-02-04T00:24:09;6.55;;;1.10;;
76417;SDS011;65250;47.602;19.002;2023-02-04T00:26:36;8.90;;;1.30;;
76417;SDS011;65250;47.602;19.002;2023-02-04T00:29:02;11.43;;;1.58;;
76417;SDS011;65250;47.602;19.002;2023-02-04T00:31:29;6.93;;;1.33;;
76417;SDS011;65250;47.602;19.002;2023-02-04T00:33:56;4.70;;;1.35;;
76417;SDS011;65250;47.602;19.002;2023-02-04T00:36:24;8.10;;;1.65;;
76417;SDS011;65250;47.602;19.002;2023-02-04T00:38:51;14.07;;;1.65;;
76417;SDS011;65250;47.602;19.002;2023-02-04T00:41:18;10.02;;;2.00;;
76417;SDS011;65250;47.602;19.002;2023-02-04T00:43:45;3.60;;;1.60;;
76417;SDS011;65250;47.602;19.002;2023-02-04T00:46:12;4.80;;;1.17;;
76417;SDS011;65250;47.602;19.002;2023-02-04T00:48:39;9.48;;;1.90;;
76417;SDS011;65250;47.602;19.002;2023-02-04T00:51:06;8.55;;;1.30;;
76417;SDS011;65250;47.602;19.002;2023-02-04T00:53:32;8.10;;;1.70;;
76417;SDS011;65250;47.602;19.002;2023-02-04T00:55:59;3.57;;;1.30;;
76417;SDS011;65250;47.602;19.002;2023-02-04T00:58:26;4.80;;;1.23;;
76417;SDS011;65250;47.602;19.002;2023-02-04T01:00:53;10.55;;;1.98;;
76417;SDS011;65250;47.602;19.002;2023-02-04T01:03:19;4.43;;;1.33;;
76417;SDS011;65250;47.602;19.002;2023-02-04T01:05:46;5.88;;;1.00;;
76417;SDS011;65250;47.602;19.002;2023-02-04T01:08:13;7.07;;;1.13;;
76417;SDS011;65250;47.602;19.002;2023-02-04T01:10:40;3.88;;;1.10;;
76417;SDS011;65250;47.602;19.002;2023-02-04T01:13:07;7.60;;;1.23;;
76417;SDS011;65250;47.602;19.002;2023-02-04T01:15:34;6.22;;;1.23;;
76417;SDS011;65250;47.602;19.002;2023-02-04T01:18:00;4.15;;;1.00;;
76417;SDS011;65250;47.602;19.002;2023-02-04T01:20:27;4.23;;;1.03;;
76417;SDS011;65250;47.602;19.002;2023-02-04T01:22:55;4.65;;;1.08;;
76417;SDS011;65250;47.602;19.002;2023-02-04T01:25:22;3.45;;;1.17;;
76417;SDS011;65250;47.602;19.002;2023-02-04T01:27:48;3.10;;;1.10;;
76417;SDS011;65250;47.602;19.002;2023-02-04T01:30:15;5.22;;;1.10;;
76417;SDS011;65250;47.602;19.002;2023-02-04T01:32:42;6.40;;;1.50;;
76417;SDS011;65250;47.602;19.002;2023-02-04T01:35:09;6.63;;;1.05;;
76417;SDS011;65250;47.602;19.002;2023-02-04T01:37:36;4.53;;;0.90;;
76417;SDS011;65250;47.602;19.002;2023-02-04T01:40:03;4.03;;;1.15;;
76417;SDS011;65250;47.602;19.002;2023-02-04T01:42:30;5.57;;;1.45;;
76417;SDS011;65250;47.602;19.002;2023-02-04T01:44:57;4.47;;;1.07;;
76417;SDS011;65250;47.602;19.002;2023-02-04T01:47:24;7.05;;;1.08;;
76417;SDS011;65250;47.602;19.002;2023-02-04T01:49:51;3.80;;;1.23;;
76417;SDS011;65250;47.602;19.002;2023-02-04T01:52:19;5.72;;;1.25;;
76417;SDS011;65250;47.602;19.002;2023-02-04T01:54:47;4.28;;;1.50;;
76417;SDS011;65250;47.602;19.002;2023-02-04T01:57:15;5.57;;;1.47;;
76417;SDS011;65250;47.602;19.002;2023-02-04T01:59:45;7.30;;;1.17;;
76417;SDS011;65250;47.602;19.002;2023-02-04T02:05:04;5.65;;;0.90;;
76417;SDS011;65250;47.602;19.002;2023-02-04T02:07:31;2.97;;;0.70;;
76417;SDS011;65250;47.602;19.002;2023-02-04T02:09:58;7.00;;;1.27;;
76417;SDS011;65250;47.602;19.002;2023-02-04T02:12:25;3.30;;;1.05;;
76417;SDS011;65250;47.602;19.002;2023-02-04T02:14:51;6.90;;;1.65;;
76417;SDS011;65250;47.602;19.002;2023-02-04T02:17:18;6.43;;;0.93;;
76417;SDS011;65250;47.602;19.002;2023-02-04T02:19:45;3.80;;;0.85;;
76417;SDS011;65250;47.602;19.002;2023-02-04T02:22:14;6.43;;;1.03;;
76417;SDS011;65250;47.602;19.002;2023-02-04T02:24:43;3.00;;;0.80;;
76417;SDS011;65250;47.602;19.002;2023-02-04T02:27:10;5.95;;;1.35;;
76417;SDS011;65250;47.602;19.002;2023-02-04T02:29:37;8.70;;;0.88;;
76417;SDS011;65250;47.602;19.002;2023-02-04T02:32:07;1.75;;;0.65;;
76417;SDS011;65250;47.602;19.002;2023-02-04T02:34:34;5.53;;;0.70;;
76417;SDS011;65250;47.602;19.002;2023-02-04T02:37:01;3.30;;;0.63;;
76417;SDS011;65250;47.602;19.002;2023-02-04T02:39:28;5.45;;;0.68;;
76417;SDS011;65250;47.602;19.002;2023-02-04T02:41:55;7.82;;;0.90;;
76417;SDS011;65250;47.602;19.002;2023-02-04T02:44:22;6.93;;;0.68;;
76417;SDS011;65250;47.602;19.002;2023-02-04T02:46:50;6.57;;;0.50;;
76417;SDS011;65250;47.602;19.002;2023-02-04T02:49:18;6.93;;;0.77;;
76417;SDS011;65250;47.602;19.002;2023-02-04T02:51:46;5.25;;;0.50;;
76417;SDS011;65250;47.602;19.002;2023-02-04T02:54:23;4.07;;;0.65;;
76417;SDS011;65250;47.602;19.002;2023-02-04T02:56:54;7.20;;;0.60;;
76417;SDS011;65250;47.602;19.002;2023-02-04T02:59:22;3.03;;;0.50;;
76417;SDS011;65250;47.602;19.002;2023-02-04T03:01:50;5.15;;;0.50;;
76417;SDS011;65250;47.602;19.002;2023-02-04T03:04:19;4.40;;;0.50;;
76417;SDS011;65250;47.602;19.002;2023-02-04T03:06:47;5.40;;;0.70;;
76417;SDS011;65250;47.602;19.002;2023-02-04T03:09:15;3.47;;;0.70;;
76417;SDS011;65250;47.602;19.002;2023-02-04T03:11:41;4.07;;;0.70;;
76417;SDS011;65250;47.602;19.002;2023-02-04T03:14:08;3.22;;;0.55;;
76417;SDS011;65250;47.602;19.002;2023-02-04T03:16:35;1.70;;;0.50;;
76417;SDS011;65250;47.602;19.002;2023-02-04T03:19:03;3.35;;;0.68;;
76417;SDS011;65250;47.602;19.002;2023-02-04T03:21:31;2.30;;;0.50;;
76417;SDS011;65250;47.602;19.002;2023-02-04T03:23:59;6.23;;;0.50;;
76417;SDS011;65250;47.602;19.002;2023-02-04T03:26:25;3.03;;;0.40;;
76417;SDS011;65250;47.602;19.002;2023-02-04T03:28:53;5.80;;;0.57;;
76417;SDS011;65250;47.602;19.002;2023-02-04T03:31:20;3.60;;;0.52;;
76417;SDS011;65250;47.602;19.002;2023-02-04T03:33:47;2.22;;;0.60;;
76417;SDS011;65250;47.602;19.002;2023-02-04T03:36:14;4.90;;;0.73;;
76417;SDS011;65250;47.602;19.002;2023-02-04T03:38:40;5.20;;;0.88;;
76417;SDS011;65250;47.602;19.002;2023-02-04T03:41:07;3.35;;;0.43;;
76417;SDS011;65250;47.602;19.002;2023-02-04T03:43:34;1.88;;;0.57;;
76417;SDS011;65250;47.602;19.002;2023-02-04T03:46:01;3.38;;;0.60;;
76417;SDS011;65250;47.602;19.002;2023-02-04T03:48:28;5.10;;;0.90;;
76417;SDS011;65250;47.602;19.002;2023-02-04T03:50:54;6.10;;;1.00;;
76417;SDS011;65250;47.602;19.002;2023-02-04T03:53:21;5.35;;;0.50;;
76417;SDS011;65250;47.602;19.002;2023-02-04T03:55:48;7.30;;;0.93;;
76417;SDS011;65250;47.602;19.002;2023-02-04T03:58:15;3.90;;;0.55;;
76417;SDS011;65250;47.602;19.002;2023-02-04T04:00:42;3.37;;;1.00;;
76417;SDS011;65250;47.602;19.002;2023-02-04T04:03:08;3.10;;;0.43;;
76417;SDS011;65250;47.602;19.002;2023-02-04T04:05:35;2.20;;;0.40;;
76417;SDS011;65250;47.602;19.002;2023-02-04T04:08:02;4.20;;;0.65;;
76417;SDS011;65250;47.602;19.002;2023-02-04T04:10:29;3.60;;;0.60;;
76417;SDS011;65250;47.602;19.002;2023-02-04T04:12:56;6.30;;;0.50;;
76417;SDS011;65250;47.602;19.002;2023-02-04T04:15:23;6.18;;;0.88;;
76417;SDS011;65250;47.602;19.002;2023-02-04T04:17:50;2.42;;;0.35;;
76417;SDS011;65250;47.602;19.002;2023-02-04T04:20:17;5.40;;;0.40;;
76417;SDS011;65250;47.602;19.002;2023-02-04T04:22:44;3.20;;;0.50;;
76417;SDS011;65250;47.602;19.002;2023-02-04T04:25:11;3.43;;;0.67;;
76417;SDS011;65250;47.602;19.002;2023-02-04T04:27:38;4.03;;;0.45;;
76417;SDS011;65250;47.602;19.002;2023-02-04T04:30:04;5.57;;;0.50;;
76417;SDS011;65250;47.602;19.002;2023-02-04T04:32:31;5.22;;;0.55;;
76417;SDS011;65250;47.602;19.002;2023-02-04T04:34:58;2.72;;;0.30;;
76417;SDS011;65250;47.602;19.002;2023-02-04T04:37:25;2.23;;;0.50;;
76417;SDS011;65250;47.602;19.002;2023-02-04T04:39:52;5.13;;;0.68;;
76417;SDS011;65250;47.602;19.002;2023-02-04T04:42:18;4.63;;;0.65;;
76417;SDS011;65250;47.602;19.002;2023-02-04T04:44:45;4.63;;;0.30;;
76417;SDS011;65250;47.602;19.002;2023-02-04T04:47:12;4.05;;;0.50;;
76417;SDS011;65250;47.602;19.002;2023-02-04T04:49:39;6.43;;;0.30;;
76417;SDS011;65250;47.602;19.002;2023-02-04T04:52:05;5.55;;;0.35;;
76417;SDS011;65250;47.602;19.002;2023-02-04T04:54:32;4.22;;;0.43;;
76417;SDS011;65250;47.602;19.002;2023-02-04T04:56:59;3.63;;;0.45;;
76417;SDS011;65250;47.602;19.002;2023-02-04T04:59:26;2.28;;;1.38;;
76417;SDS011;65250;47.602;19.002;2023-02-04T05:01:52;4.30;;;0.50;;
76417;SDS011;65250;47.602;19.002;2023-02-04T05:04:19;3.92;;;0.40;;
76417;SDS011;65250;47.602;19.002;2023-02-04T05:06:46;3.00;;;0.50;;
76417;SDS011;65250;47.602;19.002;2023-02-04T05:09:13;4.68;;;0.60;;
76417;SDS011;65250;47.602;19.002;2023-02-04T05:11:41;1.27;;;0.40;;
76417;SDS011;65250;47.602;19.002;2023-02-04T05:14:08;3.10;;;0.30;;
76417;SDS011;65250;47.602;19.002;2023-02-04T05:16:35;3.78;;;0.40;;
76417;SDS011;65250;47.602;19.002;2023-02-04T05:19:01;7.13;;;0.88;;
76417;SDS011;65250;47.602;19.002;2023-02-04T05:21:28;3.28;;;0.70;;
76417;SDS011;65250;47.602;19.002;2023-02-04T05:23:55;3.63;;;0.45;;
76417;SDS011;65250;47.602;19.002;2023-02-04T05:26:22;1.93;;;0.30;;
76417;SDS011;65250;47.602;19.002;2023-02-04T05:28:56;5.10;;;0.60;;
76417;SDS011;65250;47.602;19.002;2023-02-04T05:31:25;5.55;;;0.50;;
76417;SDS011;65250;47.602;19.002;2023-02-04T05:33:52;3.05;;;0.25;;
76417;SDS011;65250;47.602;19.002;2023-02-04T05:36:20;6.35;;;0.30;;
76417;SDS011;65250;47.602;19.002;2023-02-04T05:38:47;4.87;;;0.30;;
76417;SDS011;65250;47.602;19.002;2023-02-04T05:41:13;3.58;;;0.45;;
76417;SDS011;65250;47.602;19.002;2023-02-04T05:43:40;3.00;;;0.25;;
76417;SDS011;65250;47.602;19.002;2023-02-04T05:46:08;2.05;;;0.20;;
76417;SDS011;65250;47.602;19.002;2023-02-04T05:48:35;2.90;;;0.20;;
76417;SDS011;65250;47.602;19.002;2023-02-04T05:51:02;0.60;;;0.27;;
76417;SDS011;65250;47.602;19.002;2023-02-04T05:53:29;1.73;;;0.10;;
76417;SDS011;65250;47.602;19.002;2023-02-04T05:55:55;2.15;;;0.52;;
76417;SDS011;65250;47.602;19.002;2023-02-04T05:58:22;0.60;;;0.13;;
76417;SDS011;65250;47.602;19.002;2023-02-04T06:00:49;2.45;;;0.35;;
76417;SDS011;65250;47.602;19.002;2023-02-04T06:03:16;1.03;;;0.17;;
76417;SDS011;65250;47.602;19.002;2023-02-04T06:05:44;2.05;;;0.00;;
76417;SDS011;65250;47.602;19.002;2023-02-04T06:08:11;1.70;;;0.20;;
76417;SDS011;65250;47.602;19.002;2023-02-04T06:10:41;2.40;;;0.20;;
76417;SDS011;65250;47.602;19.002;2023-02-04T06:13:07;1.80;;;0.10;;
76417;SDS011;65250;47.602;19.002;2023-02-04T06:15:34;1.40;;;0.30;;
76417;SDS011;65250;47.602;19.002;2023-02-04T06:18:01;0.93;;;0.15;;
76417;SDS011;65250;47.602;19.002;2023-02-04T06:20:28;0.10;;;0.00;;
76417;SDS011;65250;47.602;19.002;2023-02-04T06:22:55;1.45;;;0.05;;
76417;SDS011;65250;47.602;19.002;2023-02-04T06:25:22;0.20;;;0.05;;
76417;SDS011;65250;47.602;19.002;2023-02-04T06:27:49;0.17;;;0.00;;
76417;SDS011;65250;47.602;19.002;2023-02-04T06:30:17;0.50;;;0.08;;
76417;SDS011;65250;47.602;19.002;2023-02-04T06:32:44;0.30;;;0.05;;
76417;SDS011;65250;47.602;19.002;2023-02-04T06:35:11;0.47;;;0.00;;
76417;SDS011;65250;47.602;19.002;2023-02-04T06:37:38;0.77;;;0.10;;
76417;SDS011;65250;47.602;19.002;2023-02-04T06:40:05;0.20;;;0.10;;
76417;SDS011;65250;47.602;19.002;2023-02-04T06:42:33;0.40;;;0.08;;
76417;SDS011;65250;47.602;19.002;2023-02-04T06:45:00;1.20;;;0.20;;
76417;SDS011;65250;47.602;19.002;2023-02-04T06:47:27;0.55;;;0.20;;
76417;SDS011;65250;47.602;19.002;2023-02-04T06:49:54;0.30;;;0.00;;
76417;SDS011;65250;47.602;19.002;2023-02-04T06:52:21;0.83;;;0.20;;
76417;SDS011;65250;47.602;19.002;2023-02-04T06:54:47;0.85;;;0.20;;
76417;SDS011;65250;47.602;19.002;2023-02-04T06:57:14;0.77;;;0.20;;
76417;SDS011;65250;47.602;19.002;2023-02-04T06:59:41;0.40;;;0.10;;
76417;SDS011;65250;47.602;19.002;2023-02-04T07:02:09;3.85;;;1.00;;
76417;SDS011;65250;47.602;19.002;2023-02-04T07:04:36;0.80;;;0.27;;
76417;SDS011;65250;47.602;19.002;2023-02-04T07:07:03;0.50;;;0.13;;
76417;SDS011;65250;47.602;19.002;2023-02-04T07:09:30;0.93;;;0.30;;
76417;SDS011;65250;47.602;19.002;2023-02-04T07:11:57;0.50;;;0.25;;
76417;SDS011;65250;47.602;19.002;2023-02-04T07:14:23;1.10;;;0.20;;
76417;SDS011;65250;47.602;19.002;2023-02-04T07:16:50;1.77;;;0.50;;
76417;SDS011;65250;47.602;19.002;2023-02-04T07:19:17;0.93;;;0.30;;
76417;SDS011;65250;47.602;19.002;2023-02-04T07:21:46;1.00;;;0.60;;
76417;SDS011;65250;47.602;19.002;2023-02-04T07:24:13;1.45;;;0.60;;
76417;SDS011;65250;47.602;19.002;2023-02-04T07:26:40;0.93;;;0.52;;
76417;SDS011;65250;47.602;19.002;2023-02-04T07:29:06;1.33;;;0.90;;
76417;SDS011;65250;47.602;19.002;2023-02-04T07:31:40;1.90;;;0.73;;
76417;SDS011;65250;47.602;19.002;2023-02-04T07:34:07;3.28;;;1.02;;
76417;SDS011;65250;47.602;19.002;2023-02-04T07:36:33;2.47;;;1.20;;
76417;SDS011;65250;47.602;19.002;2023-02-04T07:39:00;1.98;;;1.30;;
76417;SDS011;65250;47.602;19.002;2023-02-04T07:41:27;2.30;;;1.30;;
76417;SDS011;65250;47.602;19.002;2023-02-04T07:43:54;3.45;;;1.52;;
76417;SDS011;65250;47.602;19.002;2023-02-04T07:46:20;3.03;;;1.50;;
76417;SDS011;65250;47.602;19.002;2023-02-04T07:48:47;3.65;;;1.70;;
76417;SDS011;65250;47.602;19.002;2023-02-04T07:51:14;2.55;;;1.60;;
76417;SDS011;65250;47.602;19.002;2023-02-04T07:53:40;3.13;;;2.10;;
76417;SDS011;65250;47.602;19.002;2023-02-04T07:56:07;3.00;;;1.80;;
76417;SDS011;65250;47.602;19.002;2023-02-04T07:58:34;2.70;;;1.75;;
76417;SDS011;65250;47.602;19.002;2023-02-04T08:01:01;4.60;;;2.00;;
76417;SDS011;65250;47.602;19.002;2023-02-04T08:03:27;2.65;;;1.92;;
76417;SDS011;65250;47.602;19.002;2023-02-04T08:05:54;3.83;;;1.73;;
76417;SDS011;65250;47.602;19.002;2023-02-04T08:08:21;4.10;;;1.90;;
76417;SDS011;65250;47.602;19.002;2023-02-04T08:10:48;3.88;;;2.20;;
76417;SDS011;65250;47.602;19.002;2023-02-04T08:13:15;3.88;;;2.42;;
76417;SDS011;65250;47.602;19.002;2023-02-04T08:15:41;4.38;;;2.00;;
76417;SDS011;65250;47.602;19.002;2023-02-04T08:18:08;3.20;;;1.97;;
76417;SDS011;65250;47.602;19.002;2023-02-04T08:20:35;2.95;;;2.00;;
76417;SDS011;65250;47.602;19.002;2023-02-04T08:23:02;3.78;;;1.90;;
76417;SDS011;65250;47.602;19.002;2023-02-04T08:25:28;4.43;;;1.90;;
76417;SDS011;65250;47.602;19.002;2023-02-04T08:27:55;3.55;;;2.03;;
76417;SDS011;65250;47.602;19.002;2023-02-04T08:30:22;4.20;;;1.90;;
76417;SDS011;65250;47.602;19.002;2023-02-04T08:32:49;5.25;;;2.00;;
76417;SDS011;65250;47.602;19.002;2023-02-04T08:35:16;4.30;;;2.08;;
76417;SDS011;65250;47.602;19.002;2023-02-04T08:37:43;3.05;;;1.65;;
76417;SDS011;65250;47.602;19.002;2023-02-04T08:40:10;3.60;;;2.00;;
76417;SDS011;65250;47.602;19.002;2023-02-04T08:42:37;4.30;;;1.80;;
76417;SDS011;65250;47.602;19.002;2023-02-04T08:45:03;3.83;;;1.90;;
76417;SDS011;65250;47.602;19.002;2023-02-04T08:47:30;3.47;;;2.17;;
76417;SDS011;65250;47.602;19.002;2023-02-04T08:49:57;3.53;;;1.80;;
76417;SDS011;65250;47.602;19.002;2023-02-04T08:52:24;2.70;;;1.60;;
76417;SDS011;65250;47.602;19.002;2023-02-04T08:54:51;2.67;;;1.73;;
76417;SDS011;65250;47.602;19.002;2023-02-04T08:57:17;4.85;;;1.63;;
76417;SDS011;65250;47.602;19.002;2023-02-04T08:59:44;2.10;;;1.38;;
76417;SDS011;65250;47.602;19.002;2023-02-04T09:02:11;2.88;;;1.38;;
76417;SDS011;65250;47.602;19.002;2023-02-04T09:04:38;3.20;;;1.40;;
76417;SDS011;65250;47.602;19.002;2023-02-04T09:07:04;2.63;;;1.53;;
76417;SDS011;65250;47.602;19.002;2023-02-04T09:09:31;3.17;;;1.60;;
76417;SDS011;65250;47.602;19.002;2023-02-04T09:11:58;3.45;;;1.67;;
76417;SDS011;65250;47.602;19.002;2023-02-04T09:14:27;1.90;;;1.27;;
76417;SDS011;65250;47.602;19.002;2023-02-04T09:16:53;2.15;;;1.50;;
76417;SDS011;65250;47.602;19.002;2023-02-04T09:19:20;2.17;;;0.90;;
76417;SDS011;65250;47.602;19.002;2023-02-04T09:21:51;2.35;;;1.23;;
76417;SDS011;65250;47.602;19.002;2023-02-04T09:24:19;2.30;;;1.02;;
76417;SDS011;65250;47.602;19.002;2023-02-04T09:26:48;1.50;;;1.00;;
76417;SDS011;65250;47.602;19.002;2023-02-04T09:29:15;2.60;;;1.33;;
76417;SDS011;65250;47.602;19.002;2023-02-04T09:31:42;2.03;;;0.97;;
76417;SDS011;65250;47.602;19.002;2023-02-04T09:34:09;1.52;;;0.93;;
76417;SDS011;65250;47.602;19.002;2023-02-04T09:36:37;1.90;;;0.90;;
76417;SDS011;65250;47.602;19.002;2023-02-04T09:39:04;1.60;;;1.08;;
76417;SDS011;65250;47.602;19.002;2023-02-04T09:41:32;1.48;;;1.13;;
76417;SDS011;65250;47.602;19.002;2023-02-04T09:43:59;1.40;;;0.83;;
76417;SDS011;65250;47.602;19.002;2023-02-04T09:46:26;3.47;;;0.90;;
76417;SDS011;65250;47.602;19.002;2023-02-04T09:48:54;1.30;;;0.90;;
76417;SDS011;65250;47.602;19.002;2023-02-04T09:51:24;1.70;;;1.15;;
76417;SDS011;65250;47.602;19.002;2023-02-04T09:53:53;1.80;;;0.80;;
76417;SDS011;65250;47.602;19.002;2023-02-04T09:56:31;1.67;;;0.77;;
76417;SDS011;65250;47.602;19.002;2023-02-04T09:58:58;2.10;;;0.70;;
76417;SDS011;65250;47.602;19.002;2023-02-04T10:01:25;0.95;;;0.73;;
76417;SDS011;65250;47.602;19.002;2023-02-04T10:03:52;0.88;;;0.52;;
76417;SDS011;65250;47.602;19.002;2023-02-04T10:06:22;1.42;;;0.80;;
76417;SDS011;65250;47.602;19.002;2023-02-04T10:08:49;1.17;;;0.70;;
76417;SDS011;65250;47.602;19.002;2023-02-04T10:11:17;0.98;;;0.40;;
76417;SDS011;65250;47.602;19.002;2023-02-04T10:13:49;1.02;;;0.30;;
76417;SDS011;65250;47.602;19.002;2023-02-04T10:16:20;1.27;;;0.50;;
76417;SDS011;65250;47.602;19.002;2023-02-04T10:19:02;3.70;;;0.60;;
76417;SDS011;65250;47.602;19.002;2023-02-04T10:21:30;0.70;;;0.40;;
76417;SDS011;65250;47.602;19.002;2023-02-04T10:23:59;1.67;;;0.47;;
76417;SDS011;65250;47.602;19.002;2023-02-04T10:26:28;1.70;;;0.50;;
76417;SDS011;65250;47.602;19.002;2023-02-04T10:29:03;0.85;;;0.40;;
76417;SDS011;65250;47.602;19.002;2023-02-04T10:31:39;1.58;;;0.70;;
76417;SDS011;65250;47.602;19.002;2023-02-04T10:36:56;0.90;;;0.60;;
76417;SDS011;65250;47.602;19.002;2023-02-04T10:39:27;1.42;;;0.77;;
76417;SDS011;65250;47.602;19.002;2023-02-04T10:41:55;1.50;;;0.90;;
76417;SDS011;65250;47.602;19.002;2023-02-04T10:44:27;1.08;;;0.90;;
76417;SDS011;65250;47.602;19.002;2023-02-04T10:47:06;1.10;;;0.90;;
76417;SDS011;65250;47.602;19.002;2023-02-04T10:49:41;1.27;;;0.73;;
76417;SDS011;65250;47.602;19.002;2023-02-04T10:52:35;3.10;;;0.90;;
76417;SDS011;65250;47.602;19.002;2023-02-04T10:55:04;1.27;;;0.75;;
76417;SDS011;65250;47.602;19.002;2023-02-04T10:57:37;1.60;;;0.65;;
76417;SDS011;65250;47.602;19.002;2023-02-04T11:00:05;1.33;;;0.77;;
76417;SDS011;65250;47.602;19.002;2023-02-04T11:07:42;1.13;;;0.63;;
76417;SDS011;65250;47.602;19.002;2023-02-04T11:10:14;1.45;;;0.90;;
76417;SDS011;65250;47.602;19.002;2023-02-04T11:18:08;1.73;;;0.90;;
76417;SDS011;65250;47.602;19.002;2023-02-04T11:20:57;1.38;;;0.88;;
76417;SDS011;65250;47.602;19.002;2023-02-04T11:31:12;1.95;;;0.82;;
76417;SDS011;65250;47.602;19.002;2023-02-04T11:33:46;1.55;;;0.85;;
76417;SDS011;65250;47.602;19.002;2023-02-04T11:36:14;2.85;;;1.10;;
76417;SDS011;65250;47.602;19.002;2023-02-04T11:38:45;1.23;;;0.97;;
76417;SDS011;65250;47.602;19.002;2023-02-04T11:41:29;2.13;;;0.93;;
76417;SDS011;65250;47.602;19.002;2023-02-04T11:43:56;1.55;;;1.20;;
76417;SDS011;65250;47.602;19.002;2023-02-04T11:46:25;1.10;;;0.80;;
76417;SDS011;65250;47.602;19.002;2023-02-04T11:48:56;2.10;;;1.10;;
76417;SDS011;65250;47.602;19.002;2023-02-04T11:51:32;1.23;;;1.13;;
76417;SDS011;65250;47.602;19.002;2023-02-04T11:54:00;0.95;;;0.90;;
76417;SDS011;65250;47.602;19.002;2023-02-04T11:56:27;1.02;;;1.00;;
76417;SDS011;65250;47.602;19.002;2023-02-04T11:58:55;1.15;;;1.05;;
76417;SDS011;65250;47.602;19.002;2023-02-04T12:01:28;2.13;;;1.42;;
76417;SDS011;65250;47.602;19.002;2023-02-04T12:04:00;1.97;;;1.40;;
76417;SDS011;65250;47.602;19.002;2023-02-04T12:06:30;1.55;;;1.10;;
76417;SDS011;65250;47.602;19.002;2023-02-04T12:11:59;1.50;;;1.40;;
76417;SDS011;65250;47.602;19.002;2023-02-04T12:14:31;2.30;;;1.20;;
76417;SDS011;65250;47.602;19.002;2023-02-04T12:16:59;1.23;;;1.13;;
76417;SDS011;65250;47.602;19.002;2023-02-04T12:19:26;1.40;;;1.30;;
76417;SDS011;65250;47.602;19.002;2023-02-04T12:21:53;1.50;;;1.40;;
76417;SDS011;65250;47.602;19.002;2023-02-04T12:24:21;2.65;;;1.60;;
76417;SDS011;65250;47.602;19.002;2023-02-04T12:26:48;2.28;;;1.60;;
76417;SDS011;65250;47.602;19.002;2023-02-04T12:29:15;2.30;;;1.60;;
76417;SDS011;65250;47.602;19.002;2023-02-04T12:31:42;4.30;;;1.60;;
76417;SDS011;65250;47.602;19.002;2023-02-04T12:34:09;2.40;;;2.20;;
76417;SDS011;65250;47.602;19.002;2023-02-04T12:36:36;1.65;;;1.55;;
76417;SDS011;65250;47.602;19.002;2023-02-04T12:39:03;2.05;;;1.75;;
76417;SDS011;65250;47.602;19.002;2023-02-04T12:41:30;2.07;;;1.70;;
76417;SDS011;65250;47.602;19.002;2023-02-04T12:43:56;3.20;;;2.08;;
76417;SDS011;65250;47.602;19.002;2023-02-04T12:46:23;2.35;;;2.15;;
76417;SDS011;65250;47.602;19.002;2023-02-04T12:48:50;2.45;;;2.05;;
76417;SDS011;65250;47.602;19.002;2023-02-04T12:51:17;2.00;;;1.80;;
76417;SDS011;65250;47.602;19.002;2023-02-04T12:53:44;3.70;;;1.77;;
76417;SDS011;65250;47.602;19.002;2023-02-04T12:56:10;2.22;;;1.70;;
76417;SDS011;65250;47.602;19.002;2023-02-04T12:58:37;2.20;;;2.00;;
76417;SDS011;65250;47.602;19.002;2023-02-04T13:01:04;1.98;;;1.73;;
76417;SDS011;65250;47.602;19.002;2023-02-04T13:03:31;2.20;;;1.60;;
76417;SDS011;65250;47.602;19.002;2023-02-04T13:05:58;2.27;;;1.50;;
76417;SDS011;65250;47.602;19.002;2023-02-04T13:08:25;1.70;;;1.40;;
76417;SDS011;65250;47.602;19.002;2023-02-04T13:10:52;1.90;;;1.80;;
76417;SDS011;65250;47.602;19.002;2023-02-04T13:13:19;2.55;;;1.80;;
76417;SDS011;65250;47.602;19.002;2023-02-04T13:15:47;1.73;;;1.63;;
76417;SDS011;65250;47.602;19.002;2023-02-04T13:18:14;2.40;;;2.20;;
76417;SDS011;65250;47.602;19.002;2023-02-04T13:20:43;2.28;;;2.08;;
76417;SDS011;65250;47.602;19.002;2023-02-04T13:23:11;2.63;;;2.25;;
76417;SDS011;65250;47.602;19.002;2023-02-04T13:25:38;2.60;;;2.10;;
76417;SDS011;65250;47.602;19.002;2023-02-04T13:28:05;2.40;;;2.20;;
76417;SDS011;65250;47.602;19.002;2023-02-04T13:30:32;2.20;;;2.00;;
76417;SDS011;65250;47.602;19.002;2023-02-04T13:32:59;2.83;;;2.20;;
76417;SDS011;65250;47.602;19.002;2023-02-04T13:35:26;4.38;;;2.00;;
76417;SDS011;65250;47.602;19.002;2023-02-04T13:37:53;2.53;;;2.15;;
76417;SDS011;65250;47.602;19.002;2023-02-04T13:40:21;2.50;;;2.30;;
76417;SDS011;65250;47.602;19.002;2023-02-04T13:42:48;1.80;;;1.53;;
76417;SDS011;65250;47.602;19.002;2023-02-04T13:45:15;2.67;;;1.80;;
76417;SDS011;65250;47.602;19.002;2023-02-04T13:47:44;2.80;;;1.83;;
76417;SDS011;65250;47.602;19.002;2023-02-04T13:50:14;2.38;;;1.50;;
76417;SDS011;65250;47.602;19.002;2023-02-04T13:52:41;3.30;;;1.48;;
76417;SDS011;65250;47.602;19.002;2023-02-04T13:55:08;1.97;;;1.30;;
76417;SDS011;65250;47.602;19.002;2023-02-04T13:57:35;2.05;;;1.30;;
76417;SDS011;65250;47.602;19.002;2023-02-04T14:00:03;2.42;;;1.50;;
76417;SDS011;65250;47.602;19.002;2023-02-04T14:02:32;3.22;;;1.48;;
76417;SDS011;65250;47.602;19.002;2023-02-04T14:04:59;2.42;;;1.60;;
76417;SDS011;65250;47.602;19.002;2023-02-04T14:07:27;3.83;;;1.50;;
76417;SDS011;65250;47.602;19.002;2023-02-04T14:09:53;2.42;;;1.45;;
76417;SDS011;65250;47.602;19.002;2023-02-04T14:12:20;2.47;;;1.30;;
76417;SDS011;65250;47.602;19.002;2023-02-04T14:14:47;2.25;;;1.20;;
76417;SDS011;65250;47.602;19.002;2023-02-04T14:17:14;2.60;;;1.30;;
76417;SDS011;65250;47.602;19.002;2023-02-04T14:19:40;2.43;;;1.20;;
76417;SDS011;65250;47.602;19.002;2023-02-04T14:22:07;2.80;;;1.50;;
76417;SDS011;65250;47.602;19.002;2023-02-04T14:24:38;2.80;;;1.40;;
76417;SDS011;65250;47.602;19.002;2023-02-04T14:27:08;2.88;;;1.50;;
76417;SDS011;65250;47.602;19.002;2023-02-04T14:29:35;3.10;;;1.40;;
76417;SDS011;65250;47.602;19.002;2023-02-04T14:32:03;4.20;;;1.90;;
76417;SDS011;65250;47.602;19.002;2023-02-04T14:34:30;2.33;;;1.40;;
76417;SDS011;65250;47.602;19.002;2023-02-04T14:36:57;2.42;;;1.58;;
76417;SDS011;65250;47.602;19.002;2023-02-04T14:39:23;3.17;;;1.60;;
76417;SDS011;65250;47.602;19.002;2023-02-04T14:41:50;3.25;;;1.45;;
76417;SDS011;65250;47.602;19.002;2023-02-04T14:44:17;2.03;;;1.17;;
76417;SDS011;65250;47.602;19.002;2023-02-04T14:46:46;2.83;;;1.33;;
76417;SDS011;65250;47.602;19.002;2023-02-04T14:49:14;2.15;;;1.30;;
76417;SDS011;65250;47.602;19.002;2023-02-04T14:51:42;2.90;;;1.40;;
76417;SDS011;65250;47.602;19.002;2023-02-04T14:54:09;3.05;;;1.30;;
76417;SDS011;65250;47.602;19.002;2023-02-04T14:56:37;4.00;;;1.23;;
76417;SDS011;65250;47.602;19.002;2023-02-04T14:59:04;3.88;;;1.13;;
76417;SDS011;65250;47.602;19.002;2023-02-04T15:01:30;2.38;;;1.20;;
76417;SDS011;65250;47.602;19.002;2023-02-04T15:03:57;3.65;;;1.08;;